sensor_id;sensor_type;location;lat;lon;timestamp;temperature;humidity
16814;DHT22;8524;57.650;11.926;2023-06-19T00:01:07;16.10;99.90
16814;DHT22;8524;57.650;11.926;2023-06-19T00:03:34;16.00;99.90
16814;DHT22;8524;57.650;11.926;2023-06-19T00:06:02;15.90;99.90
16814;DHT22;8524;57.650;11.926;2023-06-19T00:08:29;15.80;99.90
16814;DHT22;8524;57.650;11.926;2023-06-19T00:10:57;15.70;99.90
16814;DHT22;8524;57.650;11.926;2023-06-19T00:13:24;15.60;99.90
16814;DHT22;8524;57.650;11.926;2023-06-19T00:15:51;15.50;99.90
16814;DHT22;8524;57.650;11.926;2023-06-19T00:18:18;15.50;99.90
16814;DHT22;8524;57.650;11.926;2023-06-19T00:20:45;15.40;99.90
16814;DHT22;8524;57.650;11.926;2023-06-19T00:23:14;15.30;99.90
16814;DHT22;8524;57.650;11.926;2023-06-19T00:25:42;15.30;99.90
16814;DHT22;8524;57.650;11.926;2023-06-19T00:28:10;15.20;99.90
16814;DHT22;8524;57.650;11.926;2023-06-19T00:30:39;15.20;99.90
16814;DHT22;8524;57.650;11.926;2023-06-19T00:33:07;15.10;99.90
16814;DHT22;8524;57.650;11.926;2023-06-19T00:35:34;15.00;99.90
16814;DHT22;8524;57.650;11.926;2023-06-19T00:38:01;15.00;99.90
16814;DHT22;8524;57.650;11.926;2023-06-19T00:40:32;14.90;99.90
16814;DHT22;8524;57.650;11.926;2023-06-19T00:42:59;14.90;99.90
16814;DHT22;8524;57.650;11.926;2023-06-19T00:45:26;15.00;99.90
16814;DHT22;8524;57.650;11.926;2023-06-19T00:47:54;14.90;99.90
16814;DHT22;8524;57.650;11.926;2023-06-19T00:50:22;14.90;99.90
16814;DHT22;8524;57.650;11.926;2023-06-19T00:52:49;14.90;99.90
16814;DHT22;8524;57.650;11.926;2023-06-19T00:55:17;14.80;99.90
16814;DHT22;8524;57.650;11.926;2023-06-19T00:57:45;14.80;99.90
16814;DHT22;8524;57.650;11.926;2023-06-19T01:00:13;14.80;99.90
16814;DHT22;8524;57.650;11.926;2023-06-19T01:02:40;14.80;99.90
16814;DHT22;8524;57.650;11.926;2023-06-19T01:05:08;14.90;99.90
16814;DHT22;8524;57.650;11.926;2023-06-19T01:07:43;14.90;99.90
16814;DHT22;8524;57.650;11.926;2023-06-19T01:10:15;14.90;99.90
16814;DHT22;8524;57.650;11.926;2023-06-19T01:12:49;14.90;99.90
16814;DHT22;8524;57.650;11.926;2023-06-19T01:15:18;14.90;99.90
16814;DHT22;8524;57.650;11.926;2023-06-19T01:17:47;14.90;99.90
16814;DHT22;8524;57.650;11.926;2023-06-19T01:20:15;14.90;99.90
16814;DHT22;8524;57.650;11.926;2023-06-19T01:22:44;15.00;99.90
16814;DHT22;8524;57.650;11.926;2023-06-19T01:25:11;15.10;99.90
16814;DHT22;8524;57.650;11.926;2023-06-19T01:27:40;15.20;99.90
16814;DHT22;8524;57.650;11.926;2023-06-19T01:30:10;15.20;99.90
16814;DHT22;8524;57.650;11.926;2023-06-19T01:32:44;15.30;99.90
16814;DHT22;8524;57.650;11.926;2023-06-19T01:35:15;15.40;99.90
16814;DHT22;8524;57.650;11.926;2023-06-19T01:37:44;15.40;99.90
16814;DHT22;8524;57.650;11.926;2023-06-19T01:40:12;15.40;99.90
16814;DHT22;8524;57.650;11.926;2023-06-19T01:42:41;15.40;99.90
16814;DHT22;8524;57.650;11.926;2023-06-19T01:45:08;15.40;99.90
16814;DHT22;8524;57.650;11.926;2023-06-19T01:47:35;15.40;99.90
16814;DHT22;8524;57.650;11.926;2023-06-19T01:50:03;15.40;99.90
16814;DHT22;8524;57.650;11.926;2023-06-19T01:52:30;15.40;99.90
16814;DHT22;8524;57.650;11.926;2023-06-19T01:54:59;15.40;99.90
16814;DHT22;8524;57.650;11.926;2023-06-19T01:57:26;15.40;99.90
16814;DHT22;8524;57.650;11.926;2023-06-19T01:59:53;15.40;99.90
16814;DHT22;8524;57.650;11.926;2023-06-19T02:02:20;15.40;99.90
16814;DHT22;8524;57.650;11.926;2023-06-19T02:04:47;15.40;99.90
16814;DHT22;8524;57.650;11.926;2023-06-19T02:07:14;15.40;99.90
16814;DHT22;8524;57.650;11.926;2023-06-19T02:09:41;15.30;99.90
16814;DHT22;8524;57.650;11.926;2023-06-19T02:12:10;15.40;99.90
16814;DHT22;8524;57.650;11.926;2023-06-19T02:14:37;15.30;99.90
16814;DHT22;8524;57.650;11.926;2023-06-19T02:17:04;15.30;99.90
16814;DHT22;8524;57.650;11.926;2023-06-19T02:19:33;15.30;99.90
16814;DHT22;8524;57.650;11.926;2023-06-19T02:22:00;15.30;99.90
16814;DHT22;8524;57.650;11.926;2023-06-19T02:24:27;15.20;99.90
16814;DHT22;8524;57.650;11.926;2023-06-19T02:26:55;15.20;99.90
16814;DHT22;8524;57.650;11.926;2023-06-19T02:29:23;15.20;99.90
16814;DHT22;8524;57.650;11.926;2023-06-19T02:31:50;15.20;99.90
16814;DHT22;8524;57.650;11.926;2023-06-19T02:34:17;15.20;99.90
16814;DHT22;8524;57.650;11.926;2023-06-19T02:36:44;15.10;99.90
16814;DHT22;8524;57.650;11.926;2023-06-19T02:39:12;15.10;99.90
16814;DHT22;8524;57.650;11.926;2023-06-19T02:41:39;15.10;99.90
16814;DHT22;8524;57.650;11.926;2023-06-19T02:44:08;15.10;99.90
16814;DHT22;8524;57.650;11.926;2023-06-19T02:46:37;15.10;99.90
16814;DHT22;8524;57.650;11.926;2023-06-19T02:49:04;15.00;99.90
16814;DHT22;8524;57.650;11.926;2023-06-19T02:51:31;14.90;99.90
16814;DHT22;8524;57.650;11.926;2023-06-19T02:53:58;14.90;99.90
16814;DHT22;8524;57.650;11.926;2023-06-19T02:56:26;14.90;99.90
16814;DHT22;8524;57.650;11.926;2023-06-19T02:58:54;14.90;99.90
16814;DHT22;8524;57.650;11.926;2023-06-19T03:01:21;14.90;99.90
16814;DHT22;8524;57.650;11.926;2023-06-19T03:03:49;14.90;99.90
16814;DHT22;8524;57.650;11.926;2023-06-19T03:06:17;14.90;99.90
16814;DHT22;8524;57.650;11.926;2023-06-19T03:08:45;14.90;99.90
16814;DHT22;8524;57.650;11.926;2023-06-19T03:11:12;14.80;99.90
16814;DHT22;8524;57.650;11.926;2023-06-19T03:13:45;14.80;99.90
16814;DHT22;8524;57.650;11.926;2023-06-19T03:16:12;14.80;99.90
16814;DHT22;8524;57.650;11.926;2023-06-19T03:18:40;14.70;99.90
16814;DHT22;8524;57.650;11.926;2023-06-19T03:21:08;14.80;99.90
16814;DHT22;8524;57.650;11.926;2023-06-19T03:23:35;14.80;99.90
16814;DHT22;8524;57.650;11.926;2023-06-19T03:26:02;14.80;99.90
16814;DHT22;8524;57.650;11.926;2023-06-19T03:28:29;14.80;99.90
16814;DHT22;8524;57.650;11.926;2023-06-19T03:30:56;14.80;99.90
16814;DHT22;8524;57.650;11.926;2023-06-19T03:33:24;14.90;99.90
16814;DHT22;8524;57.650;11.926;2023-06-19T03:35:51;14.90;99.90
16814;DHT22;8524;57.650;11.926;2023-06-19T03:38:19;15.00;99.90
16814;DHT22;8524;57.650;11.926;2023-06-19T03:40:46;15.00;99.90
16814;DHT22;8524;57.650;11.926;2023-06-19T03:43:13;15.20;99.90
16814;DHT22;8524;57.650;11.926;2023-06-19T03:45:40;15.30;99.90
16814;DHT22;8524;57.650;11.926;2023-06-19T03:48:07;15.30;99.90
16814;DHT22;8524;57.650;11.926;2023-06-19T03:50:34;15.40;99.90
16814;DHT22;8524;57.650;11.926;2023-06-19T03:53:04;15.50;99.90
16814;DHT22;8524;57.650;11.926;2023-06-19T03:55:33;15.50;99.90
16814;DHT22;8524;57.650;11.926;2023-06-19T03:58:00;15.60;99.90
16814;DHT22;8524;57.650;11.926;2023-06-19T04:00:27;15.70;99.90
16814;DHT22;8524;57.650;11.926;2023-06-19T04:02:54;15.70;99.90
16814;DHT22;8524;57.650;11.926;2023-06-19T04:05:22;15.70;99.90
16814;DHT22;8524;57.650;11.926;2023-06-19T04:07:49;15.70;99.90
16814;DHT22;8524;57.650;11.926;2023-06-19T04:10:16;15.80;99.90
16814;DHT22;8524;57.650;11.926;2023-06-19T04:12:48;15.90;99.90
16814;DHT22;8524;57.650;11.926;2023-06-19T04:15:15;16.00;99.90
16814;DHT22;8524;57.650;11.926;2023-06-19T04:17:42;16.10;99.90
16814;DHT22;8524;57.650;11.926;2023-06-19T04:20:10;16.10;99.90
16814;DHT22;8524;57.650;11.926;2023-06-19T04:22:38;16.20;99.90
16814;DHT22;8524;57.650;11.926;2023-06-19T04:25:06;16.30;99.90
16814;DHT22;8524;57.650;11.926;2023-06-19T04:27:33;16.40;99.90
16814;DHT22;8524;57.650;11.926;2023-06-19T04:30:03;16.50;99.90
16814;DHT22;8524;57.650;11.926;2023-06-19T04:32:32;16.60;99.90
16814;DHT22;8524;57.650;11.926;2023-06-19T04:35:00;16.80;99.90
16814;DHT22;8524;57.650;11.926;2023-06-19T04:37:27;17.00;99.90
16814;DHT22;8524;57.650;11.926;2023-06-19T04:39:54;17.10;99.90
16814;DHT22;8524;57.650;11.926;2023-06-19T04:42:21;17.10;99.90
16814;DHT22;8524;57.650;11.926;2023-06-19T04:44:48;17.20;99.90
16814;DHT22;8524;57.650;11.926;2023-06-19T04:47:20;17.30;99.90
16814;DHT22;8524;57.650;11.926;2023-06-19T04:49:47;17.50;99.90
16814;DHT22;8524;57.650;11.926;2023-06-19T04:52:14;17.60;99.90
16814;DHT22;8524;57.650;11.926;2023-06-19T04:54:41;17.60;99.90
16814;DHT22;8524;57.650;11.926;2023-06-19T04:57:08;17.80;99.90
16814;DHT22;8524;57.650;11.926;2023-06-19T04:59:36;17.80;99.90
16814;DHT22;8524;57.650;11.926;2023-06-19T05:02:03;17.90;99.90
16814;DHT22;8524;57.650;11.926;2023-06-19T05:04:32;18.10;99.90
16814;DHT22;8524;57.650;11.926;2023-06-19T05:06:59;18.20;99.90
16814;DHT22;8524;57.650;11.926;2023-06-19T05:09:26;18.30;99.90
16814;DHT22;8524;57.650;11.926;2023-06-19T05:11:53;18.40;99.90
16814;DHT22;8524;57.650;11.926;2023-06-19T05:14:20;18.40;99.90
16814;DHT22;8524;57.650;11.926;2023-06-19T05:16:47;18.50;99.90
16814;DHT22;8524;57.650;11.926;2023-06-19T05:19:14;18.50;99.90
16814;DHT22;8524;57.650;11.926;2023-06-19T05:21:42;18.60;99.90
16814;DHT22;8524;57.650;11.926;2023-06-19T05:24:09;18.80;99.90
16814;DHT22;8524;57.650;11.926;2023-06-19T05:26:36;18.80;99.90
16814;DHT22;8524;57.650;11.926;2023-06-19T05:29:03;18.90;99.90
16814;DHT22;8524;57.650;11.926;2023-06-19T05:31:34;19.00;99.90
16814;DHT22;8524;57.650;11.926;2023-06-19T05:34:01;19.10;99.90
16814;DHT22;8524;57.650;11.926;2023-06-19T05:36:28;19.30;99.90
16814;DHT22;8524;57.650;11.926;2023-06-19T05:38:56;19.40;99.90
16814;DHT22;8524;57.650;11.926;2023-06-19T05:41:23;19.60;99.90
16814;DHT22;8524;57.650;11.926;2023-06-19T05:43:50;19.80;99.90
16814;DHT22;8524;57.650;11.926;2023-06-19T05:46:17;20.00;99.90
16814;DHT22;8524;57.650;11.926;2023-06-19T05:48:44;20.10;99.90
16814;DHT22;8524;57.650;11.926;2023-06-19T05:51:11;20.10;99.90
16814;DHT22;8524;57.650;11.926;2023-06-19T05:53:38;20.30;99.90
16814;DHT22;8524;57.650;11.926;2023-06-19T05:56:07;20.60;99.90
16814;DHT22;8524;57.650;11.926;2023-06-19T05:58:34;20.90;99.90
16814;DHT22;8524;57.650;11.926;2023-06-19T06:01:01;20.90;99.90
16814;DHT22;8524;57.650;11.926;2023-06-19T06:03:28;20.70;99.90
16814;DHT22;8524;57.650;11.926;2023-06-19T06:05:57;20.60;99.90
16814;DHT22;8524;57.650;11.926;2023-06-19T06:08:28;20.40;99.90
16814;DHT22;8524;57.650;11.926;2023-06-19T06:10:55;20.40;99.90
16814;DHT22;8524;57.650;11.926;2023-06-19T06:13:24;20.50;99.90
16814;DHT22;8524;57.650;11.926;2023-06-19T06:15:51;20.30;99.90
16814;DHT22;8524;57.650;11.926;2023-06-19T06:18:18;20.30;99.90
16814;DHT22;8524;57.650;11.926;2023-06-19T06:20:45;20.40;99.90
16814;DHT22;8524;57.650;11.926;2023-06-19T06:23:12;20.40;99.90
16814;DHT22;8524;57.650;11.926;2023-06-19T06:25:39;20.40;99.90
16814;DHT22;8524;57.650;11.926;2023-06-19T06:28:06;20.40;99.90
16814;DHT22;8524;57.650;11.926;2023-06-19T06:30:34;20.50;99.90
16814;DHT22;8524;57.650;11.926;2023-06-19T06:33:01;20.60;99.90
16814;DHT22;8524;57.650;11.926;2023-06-19T06:35:29;20.70;99.90
16814;DHT22;8524;57.650;11.926;2023-06-19T06:37:56;21.20;99.90
16814;DHT22;8524;57.650;11.926;2023-06-19T06:40:23;21.40;99.90
16814;DHT22;8524;57.650;11.926;2023-06-19T06:42:50;21.30;99.90
16814;DHT22;8524;57.650;11.926;2023-06-19T06:45:17;21.30;99.90
16814;DHT22;8524;57.650;11.926;2023-06-19T06:47:45;21.20;99.90
16814;DHT22;8524;57.650;11.926;2023-06-19T06:50:12;21.40;99.90
16814;DHT22;8524;57.650;11.926;2023-06-19T06:52:40;21.20;99.90
16814;DHT22;8524;57.650;11.926;2023-06-19T06:55:07;21.30;99.90
16814;DHT22;8524;57.650;11.926;2023-06-19T06:57:35;21.40;99.90
16814;DHT22;8524;57.650;11.926;2023-06-19T07:00:02;21.40;99.90
16814;DHT22;8524;57.650;11.926;2023-06-19T07:02:30;21.40;99.90
16814;DHT22;8524;57.650;11.926;2023-06-19T07:04:58;21.40;99.90
16814;DHT22;8524;57.650;11.926;2023-06-19T07:07:25;21.60;99.90
16814;DHT22;8524;57.650;11.926;2023-06-19T07:09:52;21.60;99.90
16814;DHT22;8524;57.650;11.926;2023-06-19T07:12:19;21.50;99.90
16814;DHT22;8524;57.650;11.926;2023-06-19T07:14:46;21.70;99.90
16814;DHT22;8524;57.650;11.926;2023-06-19T07:17:13;21.70;99.90
16814;DHT22;8524;57.650;11.926;2023-06-19T07:19:40;22.00;99.90
16814;DHT22;8524;57.650;11.926;2023-06-19T07:22:09;22.00;99.90
16814;DHT22;8524;57.650;11.926;2023-06-19T07:24:36;22.20;99.90
16814;DHT22;8524;57.650;11.926;2023-06-19T07:27:03;22.30;99.90
16814;DHT22;8524;57.650;11.926;2023-06-19T07:29:30;22.30;99.90
16814;DHT22;8524;57.650;11.926;2023-06-19T07:31:58;22.30;99.90
16814;DHT22;8524;57.650;11.926;2023-06-19T07:34:27;22.10;99.90
16814;DHT22;8524;57.650;11.926;2023-06-19T07:36:54;21.90;99.90
16814;DHT22;8524;57.650;11.926;2023-06-19T07:39:22;21.90;99.90
16814;DHT22;8524;57.650;11.926;2023-06-19T07:41:49;21.80;99.90
16814;DHT22;8524;57.650;11.926;2023-06-19T07:44:16;21.80;99.90
16814;DHT22;8524;57.650;11.926;2023-06-19T07:46:44;21.80;99.90
16814;DHT22;8524;57.650;11.926;2023-06-19T07:49:11;22.00;99.90
16814;DHT22;8524;57.650;11.926;2023-06-19T07:51:38;22.00;99.90
16814;DHT22;8524;57.650;11.926;2023-06-19T07:54:05;22.00;99.90
16814;DHT22;8524;57.650;11.926;2023-06-19T07:56:33;21.90;99.90
16814;DHT22;8524;57.650;11.926;2023-06-19T07:59:00;21.70;99.90
16814;DHT22;8524;57.650;11.926;2023-06-19T08:01:27;21.80;99.90
16814;DHT22;8524;57.650;11.926;2023-06-19T08:03:54;21.70;99.90
16814;DHT22;8524;57.650;11.926;2023-06-19T08:06:24;21.60;99.90
16814;DHT22;8524;57.650;11.926;2023-06-19T08:08:51;21.40;99.90
16814;DHT22;8524;57.650;11.926;2023-06-19T08:11:18;21.50;99.90
16814;DHT22;8524;57.650;11.926;2023-06-19T08:13:47;21.30;99.90
16814;DHT22;8524;57.650;11.926;2023-06-19T08:16:14;21.30;99.90
16814;DHT22;8524;57.650;11.926;2023-06-19T08:18:41;21.40;99.90
16814;DHT22;8524;57.650;11.926;2023-06-19T08:21:08;21.50;99.90
16814;DHT22;8524;57.650;11.926;2023-06-19T08:23:38;21.30;99.90
16814;DHT22;8524;57.650;11.926;2023-06-19T08:26:06;21.40;99.90
16814;DHT22;8524;57.650;11.926;2023-06-19T08:28:34;21.60;99.90
16814;DHT22;8524;57.650;11.926;2023-06-19T08:31:02;21.90;99.90
16814;DHT22;8524;57.650;11.926;2023-06-19T08:33:29;22.00;99.90
16814;DHT22;8524;57.650;11.926;2023-06-19T08:35:56;22.20;99.90
16814;DHT22;8524;57.650;11.926;2023-06-19T08:38:24;22.20;99.90
16814;DHT22;8524;57.650;11.926;2023-06-19T08:40:51;22.40;99.90
16814;DHT22;8524;57.650;11.926;2023-06-19T08:43:18;22.60;99.90
16814;DHT22;8524;57.650;11.926;2023-06-19T08:46:00;22.50;99.90
16814;DHT22;8524;57.650;11.926;2023-06-19T08:48:34;22.60;99.90
16814;DHT22;8524;57.650;11.926;2023-06-19T08:51:01;22.60;99.90
16814;DHT22;8524;57.650;11.926;2023-06-19T08:53:32;22.70;99.90
16814;DHT22;8524;57.650;11.926;2023-06-19T08:55:59;22.60;99.90
16814;DHT22;8524;57.650;11.926;2023-06-19T08:58:26;22.50;99.90
16814;DHT22;8524;57.650;11.926;2023-06-19T09:00:53;22.50;99.90
16814;DHT22;8524;57.650;11.926;2023-06-19T09:03:21;22.60;99.90
16814;DHT22;8524;57.650;11.926;2023-06-19T09:05:50;22.60;99.90
16814;DHT22;8524;57.650;11.926;2023-06-19T09:08:17;22.70;99.90
16814;DHT22;8524;57.650;11.926;2023-06-19T09:10:55;22.50;99.90
16814;DHT22;8524;57.650;11.926;2023-06-19T09:13:22;22.40;99.90
16814;DHT22;8524;57.650;11.926;2023-06-19T09:15:57;22.20;99.90
16814;DHT22;8524;57.650;11.926;2023-06-19T09:18:25;22.20;99.90
16814;DHT22;8524;57.650;11.926;2023-06-19T09:20:54;22.00;99.90
16814;DHT22;8524;57.650;11.926;2023-06-19T09:23:21;22.00;99.90
16814;DHT22;8524;57.650;11.926;2023-06-19T09:25:50;22.00;99.90
16814;DHT22;8524;57.650;11.926;2023-06-19T09:28:18;21.90;99.90
16814;DHT22;8524;57.650;11.926;2023-06-19T09:30:56;21.80;99.90
16814;DHT22;8524;57.650;11.926;2023-06-19T09:33:25;22.00;99.90
16814;DHT22;8524;57.650;11.926;2023-06-19T09:35:55;22.20;99.90
16814;DHT22;8524;57.650;11.926;2023-06-19T09:38:25;22.40;99.90
16814;DHT22;8524;57.650;11.926;2023-06-19T09:40:53;22.40;99.90
16814;DHT22;8524;57.650;11.926;2023-06-19T09:43:23;22.60;99.90
16814;DHT22;8524;57.650;11.926;2023-06-19T09:45:52;22.50;99.90
16814;DHT22;8524;57.650;11.926;2023-06-19T09:48:26;22.50;99.90
16814;DHT22;8524;57.650;11.926;2023-06-19T09:50:59;22.70;99.90
16814;DHT22;8524;57.650;11.926;2023-06-19T09:53:27;23.00;99.90
16814;DHT22;8524;57.650;11.926;2023-06-19T09:55:55;23.10;99.90
16814;DHT22;8524;57.650;11.926;2023-06-19T09:58:23;23.00;99.90
16814;DHT22;8524;57.650;11.926;2023-06-19T10:00:50;23.10;99.90
16814;DHT22;8524;57.650;11.926;2023-06-19T10:03:19;23.10;99.90
16814;DHT22;8524;57.650;11.926;2023-06-19T10:05:46;23.00;99.90
16814;DHT22;8524;57.650;11.926;2023-06-19T10:08:27;23.10;99.90
16814;DHT22;8524;57.650;11.926;2023-06-19T10:10:56;23.30;99.90
16814;DHT22;8524;57.650;11.926;2023-06-19T10:13:32;23.40;99.90
16814;DHT22;8524;57.650;11.926;2023-06-19T10:15:59;23.80;99.90
16814;DHT22;8524;57.650;11.926;2023-06-19T10:18:26;23.70;99.90
16814;DHT22;8524;57.650;11.926;2023-06-19T10:20:54;23.60;99.90
16814;DHT22;8524;57.650;11.926;2023-06-19T10:23:23;23.50;99.90
16814;DHT22;8524;57.650;11.926;2023-06-19T10:25:57;23.30;99.90
16814;DHT22;8524;57.650;11.926;2023-06-19T10:28:26;23.10;99.90
16814;DHT22;8524;57.650;11.926;2023-06-19T10:30:54;23.20;99.90
16814;DHT22;8524;57.650;11.926;2023-06-19T10:33:22;23.10;99.90
16814;DHT22;8524;57.650;11.926;2023-06-19T10:35:50;23.00;99.90
16814;DHT22;8524;57.650;11.926;2023-06-19T10:38:17;23.00;99.90
16814;DHT22;8524;57.650;11.926;2023-06-19T10:40:44;23.20;99.90
16814;DHT22;8524;57.650;11.926;2023-06-19T10:43:22;23.20;99.90
16814;DHT22;8524;57.650;11.926;2023-06-19T10:45:51;23.10;99.90
16814;DHT22;8524;57.650;11.926;2023-06-19T10:48:19;23.20;99.90
16814;DHT22;8524;57.650;11.926;2023-06-19T10:50:47;23.30;99.90
16814;DHT22;8524;57.650;11.926;2023-06-19T10:53:23;23.40;99.90
16814;DHT22;8524;57.650;11.926;2023-06-19T10:55:55;23.50;99.90
16814;DHT22;8524;57.650;11.926;2023-06-19T10:58:24;23.60;99.90
16814;DHT22;8524;57.650;11.926;2023-06-19T11:00:51;23.50;99.90
16814;DHT22;8524;57.650;11.926;2023-06-19T11:03:20;23.70;99.90
16814;DHT22;8524;57.650;11.926;2023-06-19T11:05:48;23.80;99.90
16814;DHT22;8524;57.650;11.926;2023-06-19T11:08:18;23.90;99.90
16814;DHT22;8524;57.650;11.926;2023-06-19T11:10:45;23.50;99.90
16814;DHT22;8524;57.650;11.926;2023-06-19T11:13:14;23.70;99.90
16814;DHT22;8524;57.650;11.926;2023-06-19T11:15:43;23.70;99.90
16814;DHT22;8524;57.650;11.926;2023-06-19T11:18:10;23.70;99.90
16814;DHT22;8524;57.650;11.926;2023-06-19T11:20:44;23.80;99.90
16814;DHT22;8524;57.650;11.926;2023-06-19T11:23:12;23.80;99.90
16814;DHT22;8524;57.650;11.926;2023-06-19T11:25:40;23.60;99.90
16814;DHT22;8524;57.650;11.926;2023-06-19T11:28:11;23.30;99.90
16814;DHT22;8524;57.650;11.926;2023-06-19T11:30:39;23.20;99.90
16814;DHT22;8524;57.650;11.926;2023-06-19T11:33:17;23.00;99.90
16814;DHT22;8524;57.650;11.926;2023-06-19T11:35:48;22.90;99.90
16814;DHT22;8524;57.650;11.926;2023-06-19T11:38:19;22.70;99.90
16814;DHT22;8524;57.650;11.926;2023-06-19T11:40:47;22.60;99.90
16814;DHT22;8524;57.650;11.926;2023-06-19T11:43:23;22.40;99.90
16814;DHT22;8524;57.650;11.926;2023-06-19T11:45:51;22.40;99.90
16814;DHT22;8524;57.650;11.926;2023-06-19T11:48:23;22.40;99.90
16814;DHT22;8524;57.650;11.926;2023-06-19T11:50:51;22.20;99.90
16814;DHT22;8524;57.650;11.926;2023-06-19T11:53:18;22.20;99.90
16814;DHT22;8524;57.650;11.926;2023-06-19T11:55:45;22.30;99.90
16814;DHT22;8524;57.650;11.926;2023-06-19T11:58:12;22.60;99.90
16814;DHT22;8524;57.650;11.926;2023-06-19T12:00:40;22.60;99.90
16814;DHT22;8524;57.650;11.926;2023-06-19T12:03:09;22.80;99.90
16814;DHT22;8524;57.650;11.926;2023-06-19T12:05:38;22.70;99.90
16814;DHT22;8524;57.650;11.926;2023-06-19T12:08:05;22.50;99.90
16814;DHT22;8524;57.650;11.926;2023-06-19T12:10:32;22.40;99.90
16814;DHT22;8524;57.650;11.926;2023-06-19T12:12:59;22.20;99.90
16814;DHT22;8524;57.650;11.926;2023-06-19T12:15:27;22.00;99.90
16814;DHT22;8524;57.650;11.926;2023-06-19T12:17:54;21.50;99.90
16814;DHT22;8524;57.650;11.926;2023-06-19T12:20:23;21.30;99.90
16814;DHT22;8524;57.650;11.926;2023-06-19T12:22:52;21.00;99.90
16814;DHT22;8524;57.650;11.926;2023-06-19T12:25:19;20.80;99.90
16814;DHT22;8524;57.650;11.926;2023-06-19T12:27:46;20.70;99.90
16814;DHT22;8524;57.650;11.926;2023-06-19T12:30:15;20.70;99.90
16814;DHT22;8524;57.650;11.926;2023-06-19T12:32:42;20.70;99.90
16814;DHT22;8524;57.650;11.926;2023-06-19T12:35:09;20.60;99.90
16814;DHT22;8524;57.650;11.926;2023-06-19T12:37:46;20.50;99.90
16814;DHT22;8524;57.650;11.926;2023-06-19T12:40:14;20.50;99.90
16814;DHT22;8524;57.650;11.926;2023-06-19T12:42:42;20.50;99.90
16814;DHT22;8524;57.650;11.926;2023-06-19T12:45:10;20.50;99.90
16814;DHT22;8524;57.650;11.926;2023-06-19T12:47:37;20.60;99.90
16814;DHT22;8524;57.650;11.926;2023-06-19T12:50:05;20.80;99.90
16814;DHT22;8524;57.650;11.926;2023-06-19T12:52:32;20.90;99.90
16814;DHT22;8524;57.650;11.926;2023-06-19T12:54:59;21.00;99.90
16814;DHT22;8524;57.650;11.926;2023-06-19T12:57:29;21.20;99.90
16814;DHT22;8524;57.650;11.926;2023-06-19T12:59:56;21.40;99.90
16814;DHT22;8524;57.650;11.926;2023-06-19T13:02:26;21.50;99.90
16814;DHT22;8524;57.650;11.926;2023-06-19T13:04:53;21.40;99.90
16814;DHT22;8524;57.650;11.926;2023-06-19T13:07:20;21.40;99.90
16814;DHT22;8524;57.650;11.926;2023-06-19T13:09:47;21.30;99.90
16814;DHT22;8524;57.650;11.926;2023-06-19T13:12:14;21.30;99.90
16814;DHT22;8524;57.650;11.926;2023-06-19T13:14:42;21.30;99.90
16814;DHT22;8524;57.650;11.926;2023-06-19T13:17:09;21.30;99.90
16814;DHT22;8524;57.650;11.926;2023-06-19T13:19:36;21.00;99.90
16814;DHT22;8524;57.650;11.926;2023-06-19T13:22:03;21.00;99.90
16814;DHT22;8524;57.650;11.926;2023-06-19T13:24:30;21.00;99.90
16814;DHT22;8524;57.650;11.926;2023-06-19T13:26:57;21.10;99.90
16814;DHT22;8524;57.650;11.926;2023-06-19T13:29:25;21.20;99.90
16814;DHT22;8524;57.650;11.926;2023-06-19T13:31:53;21.30;99.90
16814;DHT22;8524;57.650;11.926;2023-06-19T13:34:20;21.30;99.90
16814;DHT22;8524;57.650;11.926;2023-06-19T13:36:48;21.40;99.90
16814;DHT22;8524;57.650;11.926;2023-06-19T13:39:15;21.50;99.90
16814;DHT22;8524;57.650;11.926;2023-06-19T13:41:44;21.60;99.90
16814;DHT22;8524;57.650;11.926;2023-06-19T13:44:12;21.70;99.90
16814;DHT22;8524;57.650;11.926;2023-06-19T13:46:39;21.80;99.90
16814;DHT22;8524;57.650;11.926;2023-06-19T13:49:07;22.00;99.90
16814;DHT22;8524;57.650;11.926;2023-06-19T13:51:36;22.20;99.90
16814;DHT22;8524;57.650;11.926;2023-06-19T13:54:04;22.30;99.90
16814;DHT22;8524;57.650;11.926;2023-06-19T13:56:31;22.50;99.90
16814;DHT22;8524;57.650;11.926;2023-06-19T13:58:58;22.50;99.90
16814;DHT22;8524;57.650;11.926;2023-06-19T14:01:25;22.50;99.90
16814;DHT22;8524;57.650;11.926;2023-06-19T14:03:52;22.60;99.90
16814;DHT22;8524;57.650;11.926;2023-06-19T14:06:21;23.10;99.90
16814;DHT22;8524;57.650;11.926;2023-06-19T14:08:48;23.30;99.90
16814;DHT22;8524;57.650;11.926;2023-06-19T14:11:15;23.60;99.90
16814;DHT22;8524;57.650;11.926;2023-06-19T14:13:42;23.50;99.90
16814;DHT22;8524;57.650;11.926;2023-06-19T14:16:09;23.90;99.90
16814;DHT22;8524;57.650;11.926;2023-06-19T14:18:36;23.90;99.90
16814;DHT22;8524;57.650;11.926;2023-06-19T14:21:03;23.60;99.90
16814;DHT22;8524;57.650;11.926;2023-06-19T14:23:32;23.60;99.90
16814;DHT22;8524;57.650;11.926;2023-06-19T14:25:59;23.50;99.90
16814;DHT22;8524;57.650;11.926;2023-06-19T14:28:26;23.70;99.90
16814;DHT22;8524;57.650;11.926;2023-06-19T14:30:53;23.60;99.90
16814;DHT22;8524;57.650;11.926;2023-06-19T14:33:20;23.80;99.90
16814;DHT22;8524;57.650;11.926;2023-06-19T14:35:48;23.80;99.90
16814;DHT22;8524;57.650;11.926;2023-06-19T14:38:15;23.90;99.90
16814;DHT22;8524;57.650;11.926;2023-06-19T14:40:44;23.90;99.90
16814;DHT22;8524;57.650;11.926;2023-06-19T14:43:11;24.10;99.90
16814;DHT22;8524;57.650;11.926;2023-06-19T14:45:38;24.60;99.90
16814;DHT22;8524;57.650;11.926;2023-06-19T14:48:05;24.90;99.90
16814;DHT22;8524;57.650;11.926;2023-06-19T14:50:33;25.00;99.90
16814;DHT22;8524;57.650;11.926;2023-06-19T14:53:00;25.60;99.90
16814;DHT22;8524;57.650;11.926;2023-06-19T14:55:28;25.90;99.90
16814;DHT22;8524;57.650;11.926;2023-06-19T14:57:56;25.80;99.90
16814;DHT22;8524;57.650;11.926;2023-06-19T15:00:24;25.70;99.90
16814;DHT22;8524;57.650;11.926;2023-06-19T15:02:51;25.90;99.90
16814;DHT22;8524;57.650;11.926;2023-06-19T15:05:18;25.70;99.90
16814;DHT22;8524;57.650;11.926;2023-06-19T15:07:45;25.30;99.90
16814;DHT22;8524;57.650;11.926;2023-06-19T15:10:12;25.10;99.90
16814;DHT22;8524;57.650;11.926;2023-06-19T15:12:39;24.60;99.90
16814;DHT22;8524;57.650;11.926;2023-06-19T15:15:08;24.30;99.90
16814;DHT22;8524;57.650;11.926;2023-06-19T15:17:35;24.50;99.90
16814;DHT22;8524;57.650;11.926;2023-06-19T15:20:03;24.60;99.90
16814;DHT22;8524;57.650;11.926;2023-06-19T15:22:30;25.00;99.90
16814;DHT22;8524;57.650;11.926;2023-06-19T15:24:57;25.20;99.90
16814;DHT22;8524;57.650;11.926;2023-06-19T15:27:24;25.10;99.90
16814;DHT22;8524;57.650;11.926;2023-06-19T15:29:51;25.20;99.90
16814;DHT22;8524;57.650;11.926;2023-06-19T15:32:19;25.30;99.90
16814;DHT22;8524;57.650;11.926;2023-06-19T15:34:46;25.30;99.90